Aeroboteco Virtual Airline

Aeroboteco Virtual Airlines! Uma nuvem a frente.



 INFORMAÇÕES METEOROLÓGICAS
METAR FOR GABS
ADDS - METARS form results

(1040 UTC 16 January 2019)
Data provider http://aviationweather.gov/metar/data/
 
METAR text: GABS 161030Z 08008KT 8000 NSC 30/M01 Q1016 NOSIG
Conditions at: GABS (BAMAKO/SENOU (MI, ML) observed 1030 UTC 16 January 2019
Temperature: 30.0°C (86°F)
Dewpoint: -1.0°C (30°F) [RH = 13%]
Pressure (altimeter): 30.00 inches Hg (1016.0 mb)
Winds: from the E (80 degrees) at 9 MPH (8 knots; 4.1 m/s)
Visibility: 5 miles ( 8 km)
Ceiling: at least 12,000 feet AGL
Clouds: sky clear below 12,000 feet AGL
Weather: no significant weather observed at this time

METAR text: GABS 161000Z 08007KT 050V110 8000 NSC 29/M02 Q1016 NOSIG
Conditions at: GABS (BAMAKO/SENOU (MI, ML) observed 1000 UTC 16 January 2019
Temperature: 29.0°C (84°F)
Dewpoint: -2.0°C (28°F) [RH = 13%]
Pressure (altimeter): 30.00 inches Hg (1016.0 mb)
Winds: from the E (80 degrees) at 8 MPH (7 knots; 3.6 m/s)
Visibility: 5 miles ( 8 km)
Ceiling: at least 12,000 feet AGL
Clouds: sky clear below 12,000 feet AGL
Weather: no significant weather observed at this time

Forecast for: GABS (BAMAKO/SENOU (MI, ML)
Text: TAF GABS 160500Z 1606/1712 05008KT CAVOK
Forecast period: 0600 UTC 16 January 2019 to 1200 UTC 17 January 2019
Forecast type: FROM: standard forecast or significant change
Winds: from the NE (50 degrees) at 9 MPH (8 knots; 4.1 m/s)
Visibility: 6 or more miles 10+ km)
Ceiling: unknown
Clouds: missing
Weather: NSW  (no significant weather)
Text: PROB40
Forecast period: 0600 to 1100 UTC 16 January 2019
Forecast type: TEMPORARY: The following changes expected for less than half the time period
Visibility: 2.49 miles (4.01 km)
Ceiling: unknown
Clouds: missing
Weather: DU  (widespread dust)
Text: TEMPO 1606/1611 4000 DU
Forecast period: 1700 to 2200 UTC 16 January 2019
Forecast type: TEMPORARY: The following changes expected for less than half the time period
Visibility: 2.80 miles (4.51 km)
Ceiling: unknown
Clouds: missing
Weather: DU  (widespread dust)

 MAPA DO AEROPORTO

 INFORMAÇÕES DA PISTA
Pista 06 Tamanho da pista 8879 ft Largura da pista 148 ft
Elevação da pista 1187 ft Ranhura da pista 0 ft Proa da pista 57
Pista 24 Tamanho da pista 8879 ft Largura da pista 148 ft
Elevação da pista 1244 ft Ranhura da pista 0 ft Proa da pista 237

 FREQUÊNCIAS DO AEROPORTO
Tipo A/G Nome A/G Frequência 667.3 MHZ
Tipo ACC Nome ACC Frequência 119.1 MHZ
Tipo TWR Nome TWR Frequência 118.3 MHZ

 AUXÍLIOS DE NAVEGAÇÃO PRÓXIMOS AO AEROPORTO
Tipo VOR-DME Nome Bamako/Senou Frequência 113700 KHZ
Tipo NDB Nome Bamako/Senou Frequência 301 KHZ